sensor_id;sensor_type;location;lat;lon;timestamp;temperature;humidity
21035;DHT22;10676;50.848;3.272;2022-12-07T00:00:28;5.30;99.90
21035;DHT22;10676;50.848;3.272;2022-12-07T00:02:53;5.30;99.90
21035;DHT22;10676;50.848;3.272;2022-12-07T00:05:19;5.30;99.90
21035;DHT22;10676;50.848;3.272;2022-12-07T00:07:44;5.20;99.90
21035;DHT22;10676;50.848;3.272;2022-12-07T00:10:10;5.20;99.90
21035;DHT22;10676;50.848;3.272;2022-12-07T00:12:36;5.20;99.90
21035;DHT22;10676;50.848;3.272;2022-12-07T00:15:01;5.30;99.90
21035;DHT22;10676;50.848;3.272;2022-12-07T00:17:27;5.20;99.90
21035;DHT22;10676;50.848;3.272;2022-12-07T00:19:53;5.20;99.90
21035;DHT22;10676;50.848;3.272;2022-12-07T00:22:18;5.20;99.90
21035;DHT22;10676;50.848;3.272;2022-12-07T00:24:44;5.20;99.90
21035;DHT22;10676;50.848;3.272;2022-12-07T00:27:09;5.20;99.90
21035;DHT22;10676;50.848;3.272;2022-12-07T00:29:35;5.20;99.90
21035;DHT22;10676;50.848;3.272;2022-12-07T00:32:02;5.20;99.90
21035;DHT22;10676;50.848;3.272;2022-12-07T00:34:28;5.20;99.90
21035;DHT22;10676;50.848;3.272;2022-12-07T00:36:54;5.10;99.90
21035;DHT22;10676;50.848;3.272;2022-12-07T00:39:19;5.10;99.90
21035;DHT22;10676;50.848;3.272;2022-12-07T00:41:45;5.20;99.90
21035;DHT22;10676;50.848;3.272;2022-12-07T00:44:11;5.10;99.90
21035;DHT22;10676;50.848;3.272;2022-12-07T00:46:36;5.20;99.90
21035;DHT22;10676;50.848;3.272;2022-12-07T00:49:02;5.20;99.90
21035;DHT22;10676;50.848;3.272;2022-12-07T00:51:28;5.30;99.90
21035;DHT22;10676;50.848;3.272;2022-12-07T00:53:53;5.40;99.90
21035;DHT22;10676;50.848;3.272;2022-12-07T00:56:27;5.40;99.90
21035;DHT22;10676;50.848;3.272;2022-12-07T00:58:59;5.40;99.90
21035;DHT22;10676;50.848;3.272;2022-12-07T01:01:27;5.50;99.90
21035;DHT22;10676;50.848;3.272;2022-12-07T01:03:54;5.50;99.90
21035;DHT22;10676;50.848;3.272;2022-12-07T01:06:21;5.50;99.90
21035;DHT22;10676;50.848;3.272;2022-12-07T01:08:47;5.50;99.90
21035;DHT22;10676;50.848;3.272;2022-12-07T01:11:16;5.50;99.90
21035;DHT22;10676;50.848;3.272;2022-12-07T01:13:43;5.50;99.90
21035;DHT22;10676;50.848;3.272;2022-12-07T01:16:11;5.50;99.90
21035;DHT22;10676;50.848;3.272;2022-12-07T01:18:38;5.50;99.90
21035;DHT22;10676;50.848;3.272;2022-12-07T01:21:13;5.40;99.90
21035;DHT22;10676;50.848;3.272;2022-12-07T01:23:40;5.40;99.90
21035;DHT22;10676;50.848;3.272;2022-12-07T01:26:07;5.40;99.90
21035;DHT22;10676;50.848;3.272;2022-12-07T01:28:34;5.40;99.90
21035;DHT22;10676;50.848;3.272;2022-12-07T01:31:03;5.40;99.90
21035;DHT22;10676;50.848;3.272;2022-12-07T01:33:35;5.30;99.90
21035;DHT22;10676;50.848;3.272;2022-12-07T01:36:29;5.30;99.90
21035;DHT22;10676;50.848;3.272;2022-12-07T01:38:57;5.40;99.90
21035;DHT22;10676;50.848;3.272;2022-12-07T01:41:26;5.40;99.90
21035;DHT22;10676;50.848;3.272;2022-12-07T01:44:15;5.40;99.90
21035;DHT22;10676;50.848;3.272;2022-12-07T01:46:44;5.50;99.90
21035;DHT22;10676;50.848;3.272;2022-12-07T01:49:24;5.60;99.90
21035;DHT22;10676;50.848;3.272;2022-12-07T01:51:54;5.60;99.90
21035;DHT22;10676;50.848;3.272;2022-12-07T01:54:22;5.60;99.90
21035;DHT22;10676;50.848;3.272;2022-12-07T01:56:51;5.70;99.90
21035;DHT22;10676;50.848;3.272;2022-12-07T01:59:18;5.80;99.90
21035;DHT22;10676;50.848;3.272;2022-12-07T02:01:46;5.80;99.90
21035;DHT22;10676;50.848;3.272;2022-12-07T02:04:12;5.80;99.90
21035;DHT22;10676;50.848;3.272;2022-12-07T02:06:38;5.80;99.90
21035;DHT22;10676;50.848;3.272;2022-12-07T02:09:04;5.90;99.90
21035;DHT22;10676;50.848;3.272;2022-12-07T02:11:30;5.80;99.90
21035;DHT22;10676;50.848;3.272;2022-12-07T02:13:56;5.80;99.90
21035;DHT22;10676;50.848;3.272;2022-12-07T02:16:31;5.70;99.90
21035;DHT22;10676;50.848;3.272;2022-12-07T02:27:47;5.40;99.90
21035;DHT22;10676;50.848;3.272;2022-12-07T02:30:18;5.30;99.90
21035;DHT22;10676;50.848;3.272;2022-12-07T02:33:07;5.30;99.90
21035;DHT22;10676;50.848;3.272;2022-12-07T02:38:16;5.20;99.90
21035;DHT22;10676;50.848;3.272;2022-12-07T02:40:55;5.20;99.90
21035;DHT22;10676;50.848;3.272;2022-12-07T02:43:26;5.20;99.90
21035;DHT22;10676;50.848;3.272;2022-12-07T02:45:56;5.30;99.90
21035;DHT22;10676;50.848;3.272;2022-12-07T02:48:24;5.30;99.90
21035;DHT22;10676;50.848;3.272;2022-12-07T02:50:52;5.30;99.90
21035;DHT22;10676;50.848;3.272;2022-12-07T02:53:38;5.30;99.90
21035;DHT22;10676;50.848;3.272;2022-12-07T03:10:02;5.30;99.90
21035;DHT22;10676;50.848;3.272;2022-12-07T03:12:35;5.30;99.90
21035;DHT22;10676;50.848;3.272;2022-12-07T03:15:13;5.20;99.90
21035;DHT22;10676;50.848;3.272;2022-12-07T03:17:41;5.20;99.90
21035;DHT22;10676;50.848;3.272;2022-12-07T03:20:11;5.10;99.90
21035;DHT22;10676;50.848;3.272;2022-12-07T03:22:41;5.10;99.90
21035;DHT22;10676;50.848;3.272;2022-12-07T03:25:10;5.20;99.90
21035;DHT22;10676;50.848;3.272;2022-12-07T03:27:42;5.00;99.90
21035;DHT22;10676;50.848;3.272;2022-12-07T03:30:14;5.00;99.90
21035;DHT22;10676;50.848;3.272;2022-12-07T03:35:40;5.00;99.90
21035;DHT22;10676;50.848;3.272;2022-12-07T03:38:25;5.00;99.90
21035;DHT22;10676;50.848;3.272;2022-12-07T03:41:09;5.00;99.90
21035;DHT22;10676;50.848;3.272;2022-12-07T03:43:37;5.10;99.90
21035;DHT22;10676;50.848;3.272;2022-12-07T03:49:00;5.10;99.90
21035;DHT22;10676;50.848;3.272;2022-12-07T03:54:19;5.30;99.90
21035;DHT22;10676;50.848;3.272;2022-12-07T03:56:47;5.40;99.90
21035;DHT22;10676;50.848;3.272;2022-12-07T03:59:14;5.40;99.90
21035;DHT22;10676;50.848;3.272;2022-12-07T04:01:53;5.50;99.90
21035;DHT22;10676;50.848;3.272;2022-12-07T04:04:20;5.70;99.90
21035;DHT22;10676;50.848;3.272;2022-12-07T04:06:45;5.70;99.90
21035;DHT22;10676;50.848;3.272;2022-12-07T04:09:11;5.70;99.90
21035;DHT22;10676;50.848;3.272;2022-12-07T04:11:37;5.80;99.90
21035;DHT22;10676;50.848;3.272;2022-12-07T04:14:02;5.80;99.90
21035;DHT22;10676;50.848;3.272;2022-12-07T04:16:51;5.90;99.90
21035;DHT22;10676;50.848;3.272;2022-12-07T04:19:23;5.90;99.90
21035;DHT22;10676;50.848;3.272;2022-12-07T04:21:49;5.90;99.90
21035;DHT22;10676;50.848;3.272;2022-12-07T04:24:15;5.80;99.90
21035;DHT22;10676;50.848;3.272;2022-12-07T04:26:42;5.70;99.90
21035;DHT22;10676;50.848;3.272;2022-12-07T04:29:08;5.70;99.90
21035;DHT22;10676;50.848;3.272;2022-12-07T04:31:35;5.60;99.90
21035;DHT22;10676;50.848;3.272;2022-12-07T04:34:01;5.60;99.90
21035;DHT22;10676;50.848;3.272;2022-12-07T04:36:26;5.50;99.90
21035;DHT22;10676;50.848;3.272;2022-12-07T04:38:55;5.40;99.90
21035;DHT22;10676;50.848;3.272;2022-12-07T04:41:22;5.30;99.90
21035;DHT22;10676;50.848;3.272;2022-12-07T04:43:56;5.20;99.90
21035;DHT22;10676;50.848;3.272;2022-12-07T04:46:23;5.10;99.90
21035;DHT22;10676;50.848;3.272;2022-12-07T04:48:50;5.00;99.90
21035;DHT22;10676;50.848;3.272;2022-12-07T04:51:21;5.00;99.90
21035;DHT22;10676;50.848;3.272;2022-12-07T04:53:48;5.00;99.90
21035;DHT22;10676;50.848;3.272;2022-12-07T04:56:14;5.00;99.90
21035;DHT22;10676;50.848;3.272;2022-12-07T04:58:41;4.90;99.90
21035;DHT22;10676;50.848;3.272;2022-12-07T05:01:06;5.00;99.90
21035;DHT22;10676;50.848;3.272;2022-12-07T05:03:32;5.00;99.90
21035;DHT22;10676;50.848;3.272;2022-12-07T05:05:58;5.10;99.90
21035;DHT22;10676;50.848;3.272;2022-12-07T05:08:23;5.10;99.90
21035;DHT22;10676;50.848;3.272;2022-12-07T05:10:49;5.20;99.90
21035;DHT22;10676;50.848;3.272;2022-12-07T05:13:15;5.20;99.90
21035;DHT22;10676;50.848;3.272;2022-12-07T05:15:41;5.30;99.90
21035;DHT22;10676;50.848;3.272;2022-12-07T05:18:09;5.30;99.90
21035;DHT22;10676;50.848;3.272;2022-12-07T05:20:41;5.30;99.90
21035;DHT22;10676;50.848;3.272;2022-12-07T05:23:06;5.20;99.90
21035;DHT22;10676;50.848;3.272;2022-12-07T05:25:32;5.20;99.90
21035;DHT22;10676;50.848;3.272;2022-12-07T05:27:58;5.20;99.90
21035;DHT22;10676;50.848;3.272;2022-12-07T05:30:24;5.10;99.90
21035;DHT22;10676;50.848;3.272;2022-12-07T05:32:50;5.00;99.90
21035;DHT22;10676;50.848;3.272;2022-12-07T05:35:17;4.90;99.90
21035;DHT22;10676;50.848;3.272;2022-12-07T05:37:43;4.80;99.90
21035;DHT22;10676;50.848;3.272;2022-12-07T05:40:09;4.70;99.90
21035;DHT22;10676;50.848;3.272;2022-12-07T05:42:35;4.60;99.90
21035;DHT22;10676;50.848;3.272;2022-12-07T05:45:01;4.60;99.90
21035;DHT22;10676;50.848;3.272;2022-12-07T05:47:27;4.50;99.90
21035;DHT22;10676;50.848;3.272;2022-12-07T05:49:52;4.50;99.90
21035;DHT22;10676;50.848;3.272;2022-12-07T05:52:18;4.30;99.90
21035;DHT22;10676;50.848;3.272;2022-12-07T05:54:44;4.30;99.90
21035;DHT22;10676;50.848;3.272;2022-12-07T05:57:09;4.20;99.90
21035;DHT22;10676;50.848;3.272;2022-12-07T05:59:35;4.20;99.90
21035;DHT22;10676;50.848;3.272;2022-12-07T06:02:06;4.10;99.90
21035;DHT22;10676;50.848;3.272;2022-12-07T06:04:37;4.10;99.90
21035;DHT22;10676;50.848;3.272;2022-12-07T06:07:04;4.10;99.90
21035;DHT22;10676;50.848;3.272;2022-12-07T06:09:30;4.00;99.90
21035;DHT22;10676;50.848;3.272;2022-12-07T06:11:58;4.10;99.90
21035;DHT22;10676;50.848;3.272;2022-12-07T06:14:43;4.00;99.90
21035;DHT22;10676;50.848;3.272;2022-12-07T06:17:09;4.00;99.90
21035;DHT22;10676;50.848;3.272;2022-12-07T06:19:35;4.00;99.90
21035;DHT22;10676;50.848;3.272;2022-12-07T06:22:02;4.10;99.90
21035;DHT22;10676;50.848;3.272;2022-12-07T06:24:30;4.10;99.90
21035;DHT22;10676;50.848;3.272;2022-12-07T06:26:56;4.20;99.90
21035;DHT22;10676;50.848;3.272;2022-12-07T06:29:21;4.20;99.90
21035;DHT22;10676;50.848;3.272;2022-12-07T06:31:47;4.10;99.90
21035;DHT22;10676;50.848;3.272;2022-12-07T06:34:16;4.10;99.90
21035;DHT22;10676;50.848;3.272;2022-12-07T06:36:42;4.10;99.90
21035;DHT22;10676;50.848;3.272;2022-12-07T06:39:08;4.10;99.90
21035;DHT22;10676;50.848;3.272;2022-12-07T06:41:37;4.10;99.90
21035;DHT22;10676;50.848;3.272;2022-12-07T06:44:04;4.10;99.90
21035;DHT22;10676;50.848;3.272;2022-12-07T06:46:30;4.20;99.90
21035;DHT22;10676;50.848;3.272;2022-12-07T06:48:56;4.20;99.90
21035;DHT22;10676;50.848;3.272;2022-12-07T06:51:22;4.20;99.90
21035;DHT22;10676;50.848;3.272;2022-12-07T06:53:48;4.20;99.90
21035;DHT22;10676;50.848;3.272;2022-12-07T06:56:14;4.20;99.90
21035;DHT22;10676;50.848;3.272;2022-12-07T06:58:40;4.10;99.90
21035;DHT22;10676;50.848;3.272;2022-12-07T07:01:10;4.00;99.90
21035;DHT22;10676;50.848;3.272;2022-12-07T07:03:36;4.00;99.90
21035;DHT22;10676;50.848;3.272;2022-12-07T07:06:02;4.00;99.90
21035;DHT22;10676;50.848;3.272;2022-12-07T07:08:27;3.90;99.90
21035;DHT22;10676;50.848;3.272;2022-12-07T07:10:53;3.90;99.90
21035;DHT22;10676;50.848;3.272;2022-12-07T07:13:21;3.90;99.90
21035;DHT22;10676;50.848;3.272;2022-12-07T07:15:47;3.90;99.90
21035;DHT22;10676;50.848;3.272;2022-12-07T07:18:13;3.90;99.90
21035;DHT22;10676;50.848;3.272;2022-12-07T07:20:39;3.80;99.90
21035;DHT22;10676;50.848;3.272;2022-12-07T07:23:05;3.80;99.90
21035;DHT22;10676;50.848;3.272;2022-12-07T07:25:32;3.90;99.90
21035;DHT22;10676;50.848;3.272;2022-12-07T07:27:58;3.70;99.90
21035;DHT22;10676;50.848;3.272;2022-12-07T07:30:23;3.80;99.90
21035;DHT22;10676;50.848;3.272;2022-12-07T07:32:49;3.80;99.90
21035;DHT22;10676;50.848;3.272;2022-12-07T07:35:15;3.80;99.90
21035;DHT22;10676;50.848;3.272;2022-12-07T07:37:41;3.80;99.90
21035;DHT22;10676;50.848;3.272;2022-12-07T07:40:08;3.90;99.90
21035;DHT22;10676;50.848;3.272;2022-12-07T07:42:34;3.90;99.90
21035;DHT22;10676;50.848;3.272;2022-12-07T07:44:59;4.00;99.90
21035;DHT22;10676;50.848;3.272;2022-12-07T07:47:25;4.00;99.90
21035;DHT22;10676;50.848;3.272;2022-12-07T07:49:51;4.10;99.90
21035;DHT22;10676;50.848;3.272;2022-12-07T07:52:16;4.20;99.90
21035;DHT22;10676;50.848;3.272;2022-12-07T07:54:42;4.10;99.90
21035;DHT22;10676;50.848;3.272;2022-12-07T07:57:08;4.20;99.90
21035;DHT22;10676;50.848;3.272;2022-12-07T07:59:33;4.20;99.90
21035;DHT22;10676;50.848;3.272;2022-12-07T08:01:59;4.30;99.90
21035;DHT22;10676;50.848;3.272;2022-12-07T08:04:25;4.40;99.90
21035;DHT22;10676;50.848;3.272;2022-12-07T08:06:51;4.50;99.90
21035;DHT22;10676;50.848;3.272;2022-12-07T08:09:17;4.70;99.90
21035;DHT22;10676;50.848;3.272;2022-12-07T08:11:43;4.80;99.90
21035;DHT22;10676;50.848;3.272;2022-12-07T08:14:10;4.90;99.90
21035;DHT22;10676;50.848;3.272;2022-12-07T08:16:37;5.00;99.90
21035;DHT22;10676;50.848;3.272;2022-12-07T08:19:04;5.10;99.90
21035;DHT22;10676;50.848;3.272;2022-12-07T08:21:30;5.20;99.90
21035;DHT22;10676;50.848;3.272;2022-12-07T08:23:57;5.30;99.90
21035;DHT22;10676;50.848;3.272;2022-12-07T08:26:22;5.40;99.90
21035;DHT22;10676;50.848;3.272;2022-12-07T08:28:48;5.50;99.90
21035;DHT22;10676;50.848;3.272;2022-12-07T08:31:15;5.60;99.90
21035;DHT22;10676;50.848;3.272;2022-12-07T08:33:42;5.70;99.90
21035;DHT22;10676;50.848;3.272;2022-12-07T08:36:10;5.80;99.90
21035;DHT22;10676;50.848;3.272;2022-12-07T08:38:37;5.90;99.90
21035;DHT22;10676;50.848;3.272;2022-12-07T08:41:04;6.00;99.90
21035;DHT22;10676;50.848;3.272;2022-12-07T08:43:31;6.10;99.90
21035;DHT22;10676;50.848;3.272;2022-12-07T08:46:40;6.20;99.90
21035;DHT22;10676;50.848;3.272;2022-12-07T08:48:53;6.20;99.90
21035;DHT22;10676;50.848;3.272;2022-12-07T08:51:20;6.30;99.90
21035;DHT22;10676;50.848;3.272;2022-12-07T08:53:47;6.40;99.90
21035;DHT22;10676;50.848;3.272;2022-12-07T08:56:13;6.40;99.90
21035;DHT22;10676;50.848;3.272;2022-12-07T08:58:39;6.50;99.90
21035;DHT22;10676;50.848;3.272;2022-12-07T09:01:06;6.50;99.90
21035;DHT22;10676;50.848;3.272;2022-12-07T09:03:31;6.60;99.90
21035;DHT22;10676;50.848;3.272;2022-12-07T09:05:58;6.70;99.90
21035;DHT22;10676;50.848;3.272;2022-12-07T09:08:29;6.80;99.90
21035;DHT22;10676;50.848;3.272;2022-12-07T09:10:56;6.90;99.90
21035;DHT22;10676;50.848;3.272;2022-12-07T09:13:22;6.90;99.90
21035;DHT22;10676;50.848;3.272;2022-12-07T09:15:48;7.00;99.90
21035;DHT22;10676;50.848;3.272;2022-12-07T09:18:13;7.10;99.90
21035;DHT22;10676;50.848;3.272;2022-12-07T09:20:39;7.10;99.90
21035;DHT22;10676;50.848;3.272;2022-12-07T09:23:06;7.10;99.90
21035;DHT22;10676;50.848;3.272;2022-12-07T09:25:32;7.20;99.90
21035;DHT22;10676;50.848;3.272;2022-12-07T09:27:58;7.30;99.90
21035;DHT22;10676;50.848;3.272;2022-12-07T09:30:25;7.20;99.90
21035;DHT22;10676;50.848;3.272;2022-12-07T09:32:53;7.20;99.90
21035;DHT22;10676;50.848;3.272;2022-12-07T09:35:19;7.30;99.90
21035;DHT22;10676;50.848;3.272;2022-12-07T09:37:45;7.30;99.90
21035;DHT22;10676;50.848;3.272;2022-12-07T09:40:11;7.30;99.90
21035;DHT22;10676;50.848;3.272;2022-12-07T09:42:44;7.40;99.90
21035;DHT22;10676;50.848;3.272;2022-12-07T09:45:19;7.40;99.90
21035;DHT22;10676;50.848;3.272;2022-12-07T09:47:45;7.40;99.90
21035;DHT22;10676;50.848;3.272;2022-12-07T09:50:21;7.40;99.90
21035;DHT22;10676;50.848;3.272;2022-12-07T09:52:48;7.40;99.90
21035;DHT22;10676;50.848;3.272;2022-12-07T09:55:18;7.50;99.90
21035;DHT22;10676;50.848;3.272;2022-12-07T09:57:46;7.60;99.90
21035;DHT22;10676;50.848;3.272;2022-12-07T10:00:16;7.70;99.90
21035;DHT22;10676;50.848;3.272;2022-12-07T10:02:47;7.80;99.90
21035;DHT22;10676;50.848;3.272;2022-12-07T10:05:18;7.70;99.90
21035;DHT22;10676;50.848;3.272;2022-12-07T10:07:45;7.70;99.90
21035;DHT22;10676;50.848;3.272;2022-12-07T10:10:19;7.60;99.90
21035;DHT22;10676;50.848;3.272;2022-12-07T10:12:58;7.50;99.90
21035;DHT22;10676;50.848;3.272;2022-12-07T10:15:45;7.40;99.90
21035;DHT22;10676;50.848;3.272;2022-12-07T10:18:30;7.30;99.90
21035;DHT22;10676;50.848;3.272;2022-12-07T10:21:10;7.10;99.90
21035;DHT22;10676;50.848;3.272;2022-12-07T10:23:42;6.90;99.90
21035;DHT22;10676;50.848;3.272;2022-12-07T10:26:33;7.00;99.90
21035;DHT22;10676;50.848;3.272;2022-12-07T10:29:46;7.10;99.90
21035;DHT22;10676;50.848;3.272;2022-12-07T10:34:42;7.60;99.90
21035;DHT22;10676;50.848;3.272;2022-12-07T10:39:51;7.70;99.90
21035;DHT22;10676;50.848;3.272;2022-12-07T10:42:25;7.80;99.90
21035;DHT22;10676;50.848;3.272;2022-12-07T10:45:12;8.00;99.90
21035;DHT22;10676;50.848;3.272;2022-12-07T11:02:25;10.40;99.90
21035;DHT22;10676;50.848;3.272;2022-12-07T11:05:02;10.30;99.90
21035;DHT22;10676;50.848;3.272;2022-12-07T11:10:31;10.10;99.90
21035;DHT22;10676;50.848;3.272;2022-12-07T11:18:23;10.80;99.90
21035;DHT22;10676;50.848;3.272;2022-12-07T11:21:15;10.70;99.90
21035;DHT22;10676;50.848;3.272;2022-12-07T11:24:11;10.50;99.90
21035;DHT22;10676;50.848;3.272;2022-12-07T11:27:19;10.30;99.90
21035;DHT22;10676;50.848;3.272;2022-12-07T11:35:18;9.80;99.90
21035;DHT22;10676;50.848;3.272;2022-12-07T11:37:46;9.60;99.90
21035;DHT22;10676;50.848;3.272;2022-12-07T11:40:33;9.50;99.90
21035;DHT22;10676;50.848;3.272;2022-12-07T11:43:31;9.30;99.90
21035;DHT22;10676;50.848;3.272;2022-12-07T11:46:13;9.20;99.90
21035;DHT22;10676;50.848;3.272;2022-12-07T11:49:03;9.10;99.90
21035;DHT22;10676;50.848;3.272;2022-12-07T11:51:38;9.00;99.90
21035;DHT22;10676;50.848;3.272;2022-12-07T11:54:18;9.10;99.90
21035;DHT22;10676;50.848;3.272;2022-12-07T11:56:46;9.30;99.90
21035;DHT22;10676;50.848;3.272;2022-12-07T11:59:31;9.50;99.90
21035;DHT22;10676;50.848;3.272;2022-12-07T12:07:39;9.60;99.90
21035;DHT22;10676;50.848;3.272;2022-12-07T12:21:16;9.80;99.90
21035;DHT22;10676;50.848;3.272;2022-12-07T12:23:50;9.90;99.90
21035;DHT22;10676;50.848;3.272;2022-12-07T12:26:21;9.90;99.90
21035;DHT22;10676;50.848;3.272;2022-12-07T12:33:51;10.10;99.90
21035;DHT22;10676;50.848;3.272;2022-12-07T12:36:24;10.10;99.90
21035;DHT22;10676;50.848;3.272;2022-12-07T12:47:37;9.70;99.90
21035;DHT22;10676;50.848;3.272;2022-12-07T12:50:22;9.40;99.90
21035;DHT22;10676;50.848;3.272;2022-12-07T12:53:16;9.10;99.90
21035;DHT22;10676;50.848;3.272;2022-12-07T12:58:35;8.70;99.90
21035;DHT22;10676;50.848;3.272;2022-12-07T13:03:54;8.40;99.90
21035;DHT22;10676;50.848;3.272;2022-12-07T13:06:35;8.30;99.90
21035;DHT22;10676;50.848;3.272;2022-12-07T13:09:03;8.20;99.90
21035;DHT22;10676;50.848;3.272;2022-12-07T13:11:31;8.20;99.90
21035;DHT22;10676;50.848;3.272;2022-12-07T13:17:08;8.10;99.90
21035;DHT22;10676;50.848;3.272;2022-12-07T13:19:54;8.10;99.90
21035;DHT22;10676;50.848;3.272;2022-12-07T13:25:21;8.10;99.90
21035;DHT22;10676;50.848;3.272;2022-12-07T13:28:13;8.10;99.90
21035;DHT22;10676;50.848;3.272;2022-12-07T13:33:34;8.00;99.90
21035;DHT22;10676;50.848;3.272;2022-12-07T13:36:00;8.00;99.90
21035;DHT22;10676;50.848;3.272;2022-12-07T13:38:32;8.00;99.90
21035;DHT22;10676;50.848;3.272;2022-12-07T13:41:16;8.10;99.90
21035;DHT22;10676;50.848;3.272;2022-12-07T13:43:52;8.10;99.90
21035;DHT22;10676;50.848;3.272;2022-12-07T13:46:24;8.00;99.90
21035;DHT22;10676;50.848;3.272;2022-12-07T13:48:51;8.20;99.90
21035;DHT22;10676;50.848;3.272;2022-12-07T13:51:25;8.20;99.90
21035;DHT22;10676;50.848;3.272;2022-12-07T13:54:06;8.30;99.90
21035;DHT22;10676;50.848;3.272;2022-12-07T13:56:35;8.60;99.90
21035;DHT22;10676;50.848;3.272;2022-12-07T13:59:01;8.90;99.90
21035;DHT22;10676;50.848;3.272;2022-12-07T14:01:27;9.00;99.90
21035;DHT22;10676;50.848;3.272;2022-12-07T14:03:53;9.10;99.90
21035;DHT22;10676;50.848;3.272;2022-12-07T14:06:26;9.10;99.90
21035;DHT22;10676;50.848;3.272;2022-12-07T14:09:07;9.10;99.90
21035;DHT22;10676;50.848;3.272;2022-12-07T14:11:33;9.20;99.90
21035;DHT22;10676;50.848;3.272;2022-12-07T14:14:01;9.20;99.90
21035;DHT22;10676;50.848;3.272;2022-12-07T14:16:33;9.20;99.90
21035;DHT22;10676;50.848;3.272;2022-12-07T14:19:02;9.10;99.90
21035;DHT22;10676;50.848;3.272;2022-12-07T14:21:31;9.00;99.90
21035;DHT22;10676;50.848;3.272;2022-12-07T14:24:16;8.80;99.90
21035;DHT22;10676;50.848;3.272;2022-12-07T14:26:47;8.60;99.90
21035;DHT22;10676;50.848;3.272;2022-12-07T14:29:28;8.40;99.90
21035;DHT22;10676;50.848;3.272;2022-12-07T14:31:56;8.30;99.90
21035;DHT22;10676;50.848;3.272;2022-12-07T14:34:23;8.20;99.90
21035;DHT22;10676;50.848;3.272;2022-12-07T14:36:49;8.10;99.90
21035;DHT22;10676;50.848;3.272;2022-12-07T14:39:14;7.90;99.90
21035;DHT22;10676;50.848;3.272;2022-12-07T14:41:40;7.70;99.90
21035;DHT22;10676;50.848;3.272;2022-12-07T14:44:20;7.50;99.90
21035;DHT22;10676;50.848;3.272;2022-12-07T14:46:51;7.40;99.90
21035;DHT22;10676;50.848;3.272;2022-12-07T14:49:18;7.30;99.90
21035;DHT22;10676;50.848;3.272;2022-12-07T14:51:45;7.10;99.90
21035;DHT22;10676;50.848;3.272;2022-12-07T14:54:17;7.10;99.90
21035;DHT22;10676;50.848;3.272;2022-12-07T14:56:44;7.00;99.90
21035;DHT22;10676;50.848;3.272;2022-12-07T14:59:11;7.00;99.90
21035;DHT22;10676;50.848;3.272;2022-12-07T15:01:38;7.00;99.90
21035;DHT22;10676;50.848;3.272;2022-12-07T15:04:04;7.00;99.90
21035;DHT22;10676;50.848;3.272;2022-12-07T15:06:31;7.00;99.90
21035;DHT22;10676;50.848;3.272;2022-12-07T15:08:57;7.00;99.90
21035;DHT22;10676;50.848;3.272;2022-12-07T15:11:23;6.90;99.90
21035;DHT22;10676;50.848;3.272;2022-12-07T15:13:50;6.90;99.90
21035;DHT22;10676;50.848;3.272;2022-12-07T15:16:35;6.90;99.90
21035;DHT22;10676;50.848;3.272;2022-12-07T15:19:05;6.90;99.90
21035;DHT22;10676;50.848;3.272;2022-12-07T15:21:31;6.80;99.90
21035;DHT22;10676;50.848;3.272;2022-12-07T15:23:56;6.80;99.90
21035;DHT22;10676;50.848;3.272;2022-12-07T15:26:22;6.80;99.90
21035;DHT22;10676;50.848;3.272;2022-12-07T15:28:48;6.80;99.90
21035;DHT22;10676;50.848;3.272;2022-12-07T15:31:17;6.70;99.90
21035;DHT22;10676;50.848;3.272;2022-12-07T15:33:44;6.70;99.90
21035;DHT22;10676;50.848;3.272;2022-12-07T15:36:19;6.70;99.90
21035;DHT22;10676;50.848;3.272;2022-12-07T15:38:45;6.60;99.90
21035;DHT22;10676;50.848;3.272;2022-12-07T15:41:11;6.50;99.90
21035;DHT22;10676;50.848;3.272;2022-12-07T15:43:37;6.40;99.90
21035;DHT22;10676;50.848;3.272;2022-12-07T15:46:21;6.30;99.90
21035;DHT22;10676;50.848;3.272;2022-12-07T15:48:46;6.30;99.90
21035;DHT22;10676;50.848;3.272;2022-12-07T15:51:12;6.20;99.90
21035;DHT22;10676;50.848;3.272;2022-12-07T15:53:38;6.20;99.90
21035;DHT22;10676;50.848;3.272;2022-12-07T15:56:08;6.20;99.90
21035;DHT22;10676;50.848;3.272;2022-12-07T15:58:34;6.10;99.90
21035;DHT22;10676;50.848;3.272;2022-12-07T16:01:00;6.10;99.90
21035;DHT22;10676;50.848;3.272;2022-12-07T16:03:27;6.00;99.90
21035;DHT22;10676;50.848;3.272;2022-12-07T16:05:52;6.00;99.90
21035;DHT22;10676;50.848;3.272;2022-12-07T16:08:19;6.00;99.90
21035;DHT22;10676;50.848;3.272;2022-12-07T16:10:44;6.00;99.90
21035;DHT22;10676;50.848;3.272;2022-12-07T16:13:11;5.90;99.90
21035;DHT22;10676;50.848;3.272;2022-12-07T16:15:40;6.00;99.90
21035;DHT22;10676;50.848;3.272;2022-12-07T16:18:07;5.90;99.90
21035;DHT22;10676;50.848;3.272;2022-12-07T16:20:32;5.90;99.90
21035;DHT22;10676;50.848;3.272;2022-12-07T16:22:58;5.90;99.90
21035;DHT22;10676;50.848;3.272;2022-12-07T16:25:24;6.00;99.90
21035;DHT22;10676;50.848;3.272;2022-12-07T16:27:51;6.00;99.90
21035;DHT22;10676;50.848;3.272;2022-12-07T16:30:17;6.00;99.90
21035;DHT22;10676;50.848;3.272;2022-12-07T16:32:43;6.10;99.90
21035;DHT22;10676;50.848;3.272;2022-12-07T16:35:09;6.20;99.90
21035;DHT22;10676;50.848;3.272;2022-12-07T16:37:35;6.20;99.90
21035;DHT22;10676;50.848;3.272;2022-12-07T16:40:01;6.30;99.90
21035;DHT22;10676;50.848;3.272;2022-12-07T16:42:27;6.30;99.90
21035;DHT22;10676;50.848;3.272;2022-12-07T16:44:56;6.30;99.90
21035;DHT22;10676;50.848;3.272;2022-12-07T16:47:31;6.30;99.90
21035;DHT22;10676;50.848;3.272;2022-12-07T16:49:57;6.30;99.90
21035;DHT22;10676;50.848;3.272;2022-12-07T16:52:22;6.30;99.90
21035;DHT22;10676;50.848;3.272;2022-12-07T16:54:48;6.30;99.90
21035;DHT22;10676;50.848;3.272;2022-12-07T16:57:15;6.20;99.90
21035;DHT22;10676;50.848;3.272;2022-12-07T16:59:40;6.20;99.90
21035;DHT22;10676;50.848;3.272;2022-12-07T17:02:07;6.30;99.90
21035;DHT22;10676;50.848;3.272;2022-12-07T17:04:33;6.30;99.90
21035;DHT22;10676;50.848;3.272;2022-12-07T17:07:00;6.30;99.90
21035;DHT22;10676;50.848;3.272;2022-12-07T17:09:25;6.20;99.90
21035;DHT22;10676;50.848;3.272;2022-12-07T17:11:51;6.20;99.90
21035;DHT22;10676;50.848;3.272;2022-12-07T17:14:17;6.20;99.90
21035;DHT22;10676;50.848;3.272;2022-12-07T17:17:01;6.10;99.90
21035;DHT22;10676;50.848;3.272;2022-12-07T17:19:27;6.00;99.90
21035;DHT22;10676;50.848;3.272;2022-12-07T17:21:52;6.00;99.90
21035;DHT22;10676;50.848;3.272;2022-12-07T17:24:18;5.90;99.90
21035;DHT22;10676;50.848;3.272;2022-12-07T17:26:45;5.90;99.90
21035;DHT22;10676;50.848;3.272;2022-12-07T17:29:13;6.00;99.90
21035;DHT22;10676;50.848;3.272;2022-12-07T17:31:40;5.90;99.90
21035;DHT22;10676;50.848;3.272;2022-12-07T17:34:13;5.90;99.90
21035;DHT22;10676;50.848;3.272;2022-12-07T17:36:39;5.80;99.90
21035;DHT22;10676;50.848;3.272;2022-12-07T17:39:10;5.80;99.90
21035;DHT22;10676;50.848;3.272;2022-12-07T17:41:37;5.80;99.90
21035;DHT22;10676;50.848;3.272;2022-12-07T17:44:22;5.80;99.90
21035;DHT22;10676;50.848;3.272;2022-12-07T17:46:49;5.80;99.90
21035;DHT22;10676;50.848;3.272;2022-12-07T17:49:20;5.80;99.90
21035;DHT22;10676;50.848;3.272;2022-12-07T17:51:46;5.80;99.90